sensor_id;sensor_type;location;lat;lon;timestamp;P1;durP1;ratioP1;P2;durP2;ratioP2
81996;SDS011;71500;50.806;8.774;2023-12-20T00:00:45;3.10;;;2.20;;
81996;SDS011;71500;50.806;8.774;2023-12-20T00:03:36;2.90;;;1.80;;
81996;SDS011;71500;50.806;8.774;2023-12-20T00:06:10;2.70;;;2.00;;
81996;SDS011;71500;50.806;8.774;2023-12-20T00:08:42;3.20;;;2.00;;
81996;SDS011;71500;50.806;8.774;2023-12-20T00:11:13;4.30;;;3.20;;
81996;SDS011;71500;50.806;8.774;2023-12-20T00:13:45;4.10;;;2.60;;
81996;SDS011;71500;50.806;8.774;2023-12-20T00:16:19;2.70;;;2.50;;
81996;SDS011;71500;50.806;8.774;2023-12-20T00:18:51;2.30;;;1.80;;
81996;SDS011;71500;50.806;8.774;2023-12-20T00:21:22;2.60;;;1.90;;
81996;SDS011;71500;50.806;8.774;2023-12-20T00:23:53;2.30;;;1.50;;
81996;SDS011;71500;50.806;8.774;2023-12-20T00:26:25;2.70;;;1.80;;
81996;SDS011;71500;50.806;8.774;2023-12-20T00:28:57;2.50;;;1.80;;
81996;SDS011;71500;50.806;8.774;2023-12-20T00:31:28;2.60;;;1.60;;
81996;SDS011;71500;50.806;8.774;2023-12-20T00:34:00;2.70;;;2.00;;
81996;SDS011;71500;50.806;8.774;2023-12-20T00:36:32;2.40;;;1.60;;
81996;SDS011;71500;50.806;8.774;2023-12-20T00:39:03;3.00;;;2.10;;
81996;SDS011;71500;50.806;8.774;2023-12-20T00:41:35;2.70;;;1.70;;
81996;SDS011;71500;50.806;8.774;2023-12-20T00:44:07;2.90;;;1.90;;
81996;SDS011;71500;50.806;8.774;2023-12-20T00:46:38;2.40;;;1.60;;
81996;SDS011;71500;50.806;8.774;2023-12-20T00:49:09;2.90;;;1.70;;
81996;SDS011;71500;50.806;8.774;2023-12-20T00:51:41;3.10;;;1.80;;
81996;SDS011;71500;50.806;8.774;2023-12-20T00:54:12;2.50;;;2.10;;
81996;SDS011;71500;50.806;8.774;2023-12-20T00:56:44;2.10;;;1.70;;
81996;SDS011;71500;50.806;8.774;2023-12-20T00:59:16;2.30;;;1.60;;
81996;SDS011;71500;50.806;8.774;2023-12-20T01:01:47;2.90;;;1.60;;
81996;SDS011;71500;50.806;8.774;2023-12-20T01:04:19;2.00;;;1.30;;
81996;SDS011;71500;50.806;8.774;2023-12-20T01:06:51;2.60;;;1.70;;
81996;SDS011;71500;50.806;8.774;2023-12-20T01:09:23;2.30;;;1.70;;
81996;SDS011;71500;50.806;8.774;2023-12-20T01:11:55;2.90;;;1.80;;
81996;SDS011;71500;50.806;8.774;2023-12-20T01:14:26;2.60;;;1.80;;
81996;SDS011;71500;50.806;8.774;2023-12-20T01:16:57;2.90;;;1.60;;
81996;SDS011;71500;50.806;8.774;2023-12-20T01:19:29;2.90;;;1.90;;
81996;SDS011;71500;50.806;8.774;2023-12-20T01:22:00;3.10;;;1.70;;
81996;SDS011;71500;50.806;8.774;2023-12-20T01:24:32;3.60;;;1.90;;
81996;SDS011;71500;50.806;8.774;2023-12-20T01:27:04;2.90;;;1.70;;
81996;SDS011;71500;50.806;8.774;2023-12-20T01:29:35;2.50;;;1.60;;
81996;SDS011;71500;50.806;8.774;2023-12-20T01:32:07;2.60;;;2.00;;
81996;SDS011;71500;50.806;8.774;2023-12-20T01:34:39;2.50;;;1.80;;
81996;SDS011;71500;50.806;8.774;2023-12-20T01:37:10;2.60;;;1.80;;
81996;SDS011;71500;50.806;8.774;2023-12-20T01:39:42;2.80;;;1.70;;
81996;SDS011;71500;50.806;8.774;2023-12-20T01:42:14;1.90;;;1.60;;
81996;SDS011;71500;50.806;8.774;2023-12-20T01:44:45;3.70;;;1.50;;
81996;SDS011;71500;50.806;8.774;2023-12-20T01:47:17;2.10;;;1.50;;
81996;SDS011;71500;50.806;8.774;2023-12-20T01:49:49;2.50;;;1.50;;
81996;SDS011;71500;50.806;8.774;2023-12-20T01:52:20;1.90;;;1.50;;
81996;SDS011;71500;50.806;8.774;2023-12-20T01:54:52;2.50;;;1.70;;
81996;SDS011;71500;50.806;8.774;2023-12-20T01:57:30;2.00;;;1.60;;
81996;SDS011;71500;50.806;8.774;2023-12-20T02:00:02;2.10;;;1.70;;
81996;SDS011;71500;50.806;8.774;2023-12-20T02:02:35;2.00;;;1.40;;
81996;SDS011;71500;50.806;8.774;2023-12-20T02:05:09;2.60;;;1.60;;
81996;SDS011;71500;50.806;8.774;2023-12-20T02:07:41;1.70;;;1.30;;
81996;SDS011;71500;50.806;8.774;2023-12-20T02:10:13;2.40;;;1.70;;
81996;SDS011;71500;50.806;8.774;2023-12-20T02:12:45;1.90;;;1.40;;
81996;SDS011;71500;50.806;8.774;2023-12-20T02:15:17;2.30;;;1.50;;
81996;SDS011;71500;50.806;8.774;2023-12-20T02:17:48;1.80;;;1.30;;
81996;SDS011;71500;50.806;8.774;2023-12-20T02:20:20;1.90;;;1.50;;
81996;SDS011;71500;50.806;8.774;2023-12-20T02:22:51;2.10;;;1.50;;
81996;SDS011;71500;50.806;8.774;2023-12-20T02:25:23;2.40;;;1.60;;
81996;SDS011;71500;50.806;8.774;2023-12-20T02:27:54;3.30;;;2.00;;
81996;SDS011;71500;50.806;8.774;2023-12-20T02:30:26;2.00;;;1.70;;
81996;SDS011;71500;50.806;8.774;2023-12-20T02:32:57;2.30;;;1.60;;
81996;SDS011;71500;50.806;8.774;2023-12-20T02:35:30;2.00;;;1.50;;
81996;SDS011;71500;50.806;8.774;2023-12-20T02:38:02;2.60;;;1.60;;
81996;SDS011;71500;50.806;8.774;2023-12-20T02:40:33;2.60;;;1.50;;
81996;SDS011;71500;50.806;8.774;2023-12-20T02:43:05;2.30;;;1.50;;
81996;SDS011;71500;50.806;8.774;2023-12-20T02:45:36;2.70;;;1.80;;
81996;SDS011;71500;50.806;8.774;2023-12-20T02:48:08;2.20;;;1.90;;
81996;SDS011;71500;50.806;8.774;2023-12-20T02:50:39;2.20;;;1.60;;
81996;SDS011;71500;50.806;8.774;2023-12-20T02:53:11;2.40;;;1.80;;
81996;SDS011;71500;50.806;8.774;2023-12-20T02:55:42;1.80;;;1.60;;
81996;SDS011;71500;50.806;8.774;2023-12-20T02:58:14;2.80;;;1.80;;
81996;SDS011;71500;50.806;8.774;2023-12-20T03:00:46;3.10;;;2.20;;
81996;SDS011;71500;50.806;8.774;2023-12-20T03:03:18;2.70;;;1.80;;
81996;SDS011;71500;50.806;8.774;2023-12-20T03:05:49;2.20;;;1.70;;
81996;SDS011;71500;50.806;8.774;2023-12-20T03:08:21;2.30;;;2.00;;
81996;SDS011;71500;50.806;8.774;2023-12-20T03:10:56;2.10;;;1.70;;
81996;SDS011;71500;50.806;8.774;2023-12-20T03:13:28;2.10;;;1.50;;
81996;SDS011;71500;50.806;8.774;2023-12-20T03:15:59;2.80;;;1.80;;
81996;SDS011;71500;50.806;8.774;2023-12-20T03:18:30;3.00;;;1.90;;
81996;SDS011;71500;50.806;8.774;2023-12-20T03:21:02;2.60;;;1.80;;
81996;SDS011;71500;50.806;8.774;2023-12-20T03:23:34;2.60;;;1.90;;
81996;SDS011;71500;50.806;8.774;2023-12-20T03:26:07;2.40;;;2.00;;
81996;SDS011;71500;50.806;8.774;2023-12-20T03:28:39;2.10;;;1.60;;
81996;SDS011;71500;50.806;8.774;2023-12-20T03:31:10;2.50;;;1.50;;
81996;SDS011;71500;50.806;8.774;2023-12-20T03:33:42;2.10;;;1.80;;
81996;SDS011;71500;50.806;8.774;2023-12-20T03:36:13;2.40;;;1.70;;
81996;SDS011;71500;50.806;8.774;2023-12-20T03:38:45;1.90;;;1.40;;
81996;SDS011;71500;50.806;8.774;2023-12-20T03:41:17;2.50;;;1.70;;
81996;SDS011;71500;50.806;8.774;2023-12-20T03:43:48;2.10;;;1.60;;
81996;SDS011;71500;50.806;8.774;2023-12-20T03:46:19;2.50;;;1.70;;
81996;SDS011;71500;50.806;8.774;2023-12-20T03:48:51;2.70;;;1.60;;
81996;SDS011;71500;50.806;8.774;2023-12-20T03:51:22;2.40;;;1.60;;
81996;SDS011;71500;50.806;8.774;2023-12-20T03:53:53;2.50;;;1.90;;
81996;SDS011;71500;50.806;8.774;2023-12-20T03:56:25;2.20;;;1.40;;
81996;SDS011;71500;50.806;8.774;2023-12-20T03:58:56;2.90;;;1.80;;
81996;SDS011;71500;50.806;8.774;2023-12-20T04:01:27;2.90;;;1.70;;
81996;SDS011;71500;50.806;8.774;2023-12-20T04:03:59;2.30;;;1.70;;
81996;SDS011;71500;50.806;8.774;2023-12-20T04:06:30;3.20;;;1.70;;
81996;SDS011;71500;50.806;8.774;2023-12-20T04:09:02;2.00;;;1.60;;
81996;SDS011;71500;50.806;8.774;2023-12-20T04:11:33;3.20;;;2.80;;
81996;SDS011;71500;50.806;8.774;2023-12-20T04:14:06;2.80;;;1.70;;
81996;SDS011;71500;50.806;8.774;2023-12-20T04:16:37;5.10;;;2.10;;
81996;SDS011;71500;50.806;8.774;2023-12-20T04:19:12;3.40;;;1.80;;
81996;SDS011;71500;50.806;8.774;2023-12-20T04:21:43;2.80;;;1.90;;
81996;SDS011;71500;50.806;8.774;2023-12-20T04:24:15;3.70;;;1.80;;
81996;SDS011;71500;50.806;8.774;2023-12-20T04:26:46;3.10;;;1.80;;
81996;SDS011;71500;50.806;8.774;2023-12-20T04:29:17;2.80;;;1.70;;
81996;SDS011;71500;50.806;8.774;2023-12-20T04:31:49;2.70;;;1.90;;
81996;SDS011;71500;50.806;8.774;2023-12-20T04:34:21;3.30;;;1.90;;
81996;SDS011;71500;50.806;8.774;2023-12-20T04:36:53;2.60;;;2.00;;
81996;SDS011;71500;50.806;8.774;2023-12-20T04:39:25;2.90;;;2.10;;
81996;SDS011;71500;50.806;8.774;2023-12-20T04:41:57;4.00;;;2.30;;
81996;SDS011;71500;50.806;8.774;2023-12-20T04:44:28;5.00;;;2.50;;
81996;SDS011;71500;50.806;8.774;2023-12-20T04:47:00;6.60;;;2.40;;
81996;SDS011;71500;50.806;8.774;2023-12-20T04:49:31;2.70;;;2.20;;
81996;SDS011;71500;50.806;8.774;2023-12-20T04:52:04;3.20;;;2.20;;
81996;SDS011;71500;50.806;8.774;2023-12-20T04:54:35;3.60;;;2.30;;
81996;SDS011;71500;50.806;8.774;2023-12-20T04:57:10;2.60;;;1.90;;
81996;SDS011;71500;50.806;8.774;2023-12-20T04:59:42;3.70;;;2.50;;
81996;SDS011;71500;50.806;8.774;2023-12-20T05:02:13;3.60;;;1.90;;
81996;SDS011;71500;50.806;8.774;2023-12-20T05:04:44;2.60;;;1.90;;
81996;SDS011;71500;50.806;8.774;2023-12-20T05:07:16;3.00;;;1.80;;
81996;SDS011;71500;50.806;8.774;2023-12-20T05:09:47;4.90;;;2.60;;
81996;SDS011;71500;50.806;8.774;2023-12-20T05:12:19;3.80;;;2.60;;
81996;SDS011;71500;50.806;8.774;2023-12-20T05:14:51;3.80;;;2.20;;
81996;SDS011;71500;50.806;8.774;2023-12-20T05:17:22;3.80;;;2.30;;
81996;SDS011;71500;50.806;8.774;2023-12-20T05:19:54;3.80;;;2.20;;
81996;SDS011;71500;50.806;8.774;2023-12-20T05:22:25;3.60;;;2.10;;
81996;SDS011;71500;50.806;8.774;2023-12-20T05:24:57;3.00;;;2.10;;
81996;SDS011;71500;50.806;8.774;2023-12-20T05:27:29;2.60;;;1.80;;
81996;SDS011;71500;50.806;8.774;2023-12-20T05:30:00;3.50;;;2.00;;
81996;SDS011;71500;50.806;8.774;2023-12-20T05:32:33;5.00;;;2.80;;
81996;SDS011;71500;50.806;8.774;2023-12-20T05:35:05;4.10;;;2.30;;
81996;SDS011;71500;50.806;8.774;2023-12-20T05:37:37;4.20;;;2.60;;
81996;SDS011;71500;50.806;8.774;2023-12-20T05:40:10;3.60;;;2.00;;
81996;SDS011;71500;50.806;8.774;2023-12-20T05:42:41;2.60;;;1.90;;
81996;SDS011;71500;50.806;8.774;2023-12-20T05:45:14;3.70;;;2.30;;
81996;SDS011;71500;50.806;8.774;2023-12-20T05:47:46;4.30;;;2.30;;
81996;SDS011;71500;50.806;8.774;2023-12-20T05:50:17;3.00;;;2.10;;
81996;SDS011;71500;50.806;8.774;2023-12-20T05:52:50;4.40;;;2.10;;
81996;SDS011;71500;50.806;8.774;2023-12-20T05:55:21;4.40;;;2.30;;
81996;SDS011;71500;50.806;8.774;2023-12-20T05:57:53;3.70;;;2.40;;
81996;SDS011;71500;50.806;8.774;2023-12-20T06:00:24;3.40;;;2.30;;
81996;SDS011;71500;50.806;8.774;2023-12-20T06:02:55;3.20;;;2.60;;
81996;SDS011;71500;50.806;8.774;2023-12-20T06:05:26;3.70;;;2.10;;
81996;SDS011;71500;50.806;8.774;2023-12-20T06:07:58;3.90;;;2.20;;
81996;SDS011;71500;50.806;8.774;2023-12-20T06:10:31;3.10;;;2.10;;
81996;SDS011;71500;50.806;8.774;2023-12-20T06:13:03;4.90;;;2.60;;
81996;SDS011;71500;50.806;8.774;2023-12-20T06:15:35;3.30;;;2.10;;
81996;SDS011;71500;50.806;8.774;2023-12-20T06:18:07;4.70;;;2.20;;
81996;SDS011;71500;50.806;8.774;2023-12-20T06:20:38;4.70;;;2.40;;
81996;SDS011;71500;50.806;8.774;2023-12-20T06:23:10;5.00;;;2.60;;
81996;SDS011;71500;50.806;8.774;2023-12-20T06:25:41;3.50;;;2.40;;
81996;SDS011;71500;50.806;8.774;2023-12-20T06:28:13;4.10;;;2.70;;
81996;SDS011;71500;50.806;8.774;2023-12-20T06:30:44;4.00;;;2.90;;
81996;SDS011;71500;50.806;8.774;2023-12-20T06:33:18;2.90;;;2.20;;
81996;SDS011;71500;50.806;8.774;2023-12-20T06:35:51;4.20;;;2.20;;
81996;SDS011;71500;50.806;8.774;2023-12-20T06:38:22;3.60;;;2.20;;
81996;SDS011;71500;50.806;8.774;2023-12-20T06:40:54;3.70;;;2.30;;
81996;SDS011;71500;50.806;8.774;2023-12-20T06:43:26;3.10;;;2.30;;
81996;SDS011;71500;50.806;8.774;2023-12-20T06:46:17;3.90;;;2.30;;
81996;SDS011;71500;50.806;8.774;2023-12-20T06:48:48;4.00;;;2.40;;
81996;SDS011;71500;50.806;8.774;2023-12-20T06:51:20;3.90;;;2.30;;
81996;SDS011;71500;50.806;8.774;2023-12-20T06:53:54;3.70;;;2.40;;
81996;SDS011;71500;50.806;8.774;2023-12-20T06:56:25;3.30;;;1.90;;
81996;SDS011;71500;50.806;8.774;2023-12-20T06:58:56;3.20;;;2.40;;
81996;SDS011;71500;50.806;8.774;2023-12-20T07:01:28;2.70;;;1.90;;
81996;SDS011;71500;50.806;8.774;2023-12-20T07:03:59;2.60;;;1.80;;
81996;SDS011;71500;50.806;8.774;2023-12-20T07:06:31;4.10;;;2.30;;
81996;SDS011;71500;50.806;8.774;2023-12-20T07:09:02;6.00;;;3.00;;
81996;SDS011;71500;50.806;8.774;2023-12-20T07:11:33;3.70;;;2.10;;
81996;SDS011;71500;50.806;8.774;2023-12-20T07:14:05;8.50;;;2.70;;
81996;SDS011;71500;50.806;8.774;2023-12-20T07:16:37;7.10;;;2.60;;
81996;SDS011;71500;50.806;8.774;2023-12-20T07:19:09;2.80;;;2.00;;
81996;SDS011;71500;50.806;8.774;2023-12-20T07:21:40;4.90;;;2.60;;
81996;SDS011;71500;50.806;8.774;2023-12-20T07:24:11;4.10;;;2.60;;
81996;SDS011;71500;50.806;8.774;2023-12-20T07:26:43;5.00;;;2.70;;
81996;SDS011;71500;50.806;8.774;2023-12-20T07:29:14;4.60;;;2.60;;
81996;SDS011;71500;50.806;8.774;2023-12-20T07:31:46;7.50;;;2.90;;
81996;SDS011;71500;50.806;8.774;2023-12-20T07:34:17;4.30;;;2.90;;
81996;SDS011;71500;50.806;8.774;2023-12-20T07:36:49;7.30;;;3.00;;
81996;SDS011;71500;50.806;8.774;2023-12-20T07:39:21;3.50;;;2.20;;
81996;SDS011;71500;50.806;8.774;2023-12-20T07:41:52;4.90;;;2.20;;
81996;SDS011;71500;50.806;8.774;2023-12-20T07:44:23;3.30;;;2.00;;
81996;SDS011;71500;50.806;8.774;2023-12-20T07:46:55;5.20;;;2.40;;
81996;SDS011;71500;50.806;8.774;2023-12-20T07:49:27;3.80;;;2.60;;
81996;SDS011;71500;50.806;8.774;2023-12-20T07:51:58;6.20;;;2.90;;
81996;SDS011;71500;50.806;8.774;2023-12-20T07:54:30;5.00;;;2.60;;
81996;SDS011;71500;50.806;8.774;2023-12-20T07:57:01;5.40;;;2.40;;
81996;SDS011;71500;50.806;8.774;2023-12-20T07:59:33;3.90;;;2.00;;
81996;SDS011;71500;50.806;8.774;2023-12-20T08:02:05;4.30;;;2.10;;
81996;SDS011;71500;50.806;8.774;2023-12-20T08:04:37;4.60;;;2.40;;
81996;SDS011;71500;50.806;8.774;2023-12-20T08:07:09;3.60;;;2.50;;
81996;SDS011;71500;50.806;8.774;2023-12-20T08:09:41;4.10;;;2.70;;
81996;SDS011;71500;50.806;8.774;2023-12-20T08:12:12;4.80;;;2.40;;
81996;SDS011;71500;50.806;8.774;2023-12-20T08:17:15;4.90;;;2.40;;
81996;SDS011;71500;50.806;8.774;2023-12-20T08:19:47;4.40;;;2.40;;
81996;SDS011;71500;50.806;8.774;2023-12-20T08:22:19;4.40;;;2.20;;
81996;SDS011;71500;50.806;8.774;2023-12-20T08:24:51;3.80;;;2.80;;
81996;SDS011;71500;50.806;8.774;2023-12-20T08:27:22;4.00;;;2.40;;
81996;SDS011;71500;50.806;8.774;2023-12-20T08:29:54;4.70;;;2.30;;
81996;SDS011;71500;50.806;8.774;2023-12-20T08:32:26;3.50;;;2.40;;
81996;SDS011;71500;50.806;8.774;2023-12-20T08:34:58;3.40;;;2.40;;
81996;SDS011;71500;50.806;8.774;2023-12-20T08:37:30;5.40;;;2.90;;
81996;SDS011;71500;50.806;8.774;2023-12-20T08:40:01;6.60;;;2.80;;
81996;SDS011;71500;50.806;8.774;2023-12-20T08:45:06;5.80;;;2.50;;
81996;SDS011;71500;50.806;8.774;2023-12-20T08:47:38;7.40;;;2.80;;
81996;SDS011;71500;50.806;8.774;2023-12-20T08:50:10;8.50;;;3.30;;
81996;SDS011;71500;50.806;8.774;2023-12-20T08:52:42;5.30;;;3.00;;
81996;SDS011;71500;50.806;8.774;2023-12-20T08:55:13;3.80;;;2.40;;
81996;SDS011;71500;50.806;8.774;2023-12-20T08:57:47;4.40;;;2.60;;
81996;SDS011;71500;50.806;8.774;2023-12-20T09:00:20;3.90;;;2.40;;
81996;SDS011;71500;50.806;8.774;2023-12-20T09:02:53;6.30;;;3.00;;
81996;SDS011;71500;50.806;8.774;2023-12-20T09:05:25;5.20;;;2.50;;
81996;SDS011;71500;50.806;8.774;2023-12-20T09:07:56;6.10;;;3.30;;
81996;SDS011;71500;50.806;8.774;2023-12-20T09:10:28;4.20;;;2.80;;
81996;SDS011;71500;50.806;8.774;2023-12-20T09:12:59;5.20;;;3.00;;
81996;SDS011;71500;50.806;8.774;2023-12-20T09:15:31;4.90;;;2.70;;
81996;SDS011;71500;50.806;8.774;2023-12-20T09:18:05;5.00;;;2.50;;
81996;SDS011;71500;50.806;8.774;2023-12-20T09:20:37;4.80;;;2.80;;
81996;SDS011;71500;50.806;8.774;2023-12-20T09:23:12;4.50;;;2.40;;
81996;SDS011;71500;50.806;8.774;2023-12-20T09:25:43;4.30;;;2.40;;
81996;SDS011;71500;50.806;8.774;2023-12-20T09:28:14;4.00;;;2.40;;
81996;SDS011;71500;50.806;8.774;2023-12-20T09:30:46;4.50;;;2.30;;
81996;SDS011;71500;50.806;8.774;2023-12-20T09:33:17;5.50;;;2.40;;
81996;SDS011;71500;50.806;8.774;2023-12-20T09:35:49;4.60;;;2.40;;
81996;SDS011;71500;50.806;8.774;2023-12-20T09:38:21;5.40;;;2.80;;
81996;SDS011;71500;50.806;8.774;2023-12-20T09:40:52;8.60;;;4.10;;
81996;SDS011;71500;50.806;8.774;2023-12-20T09:43:24;6.90;;;2.60;;
81996;SDS011;71500;50.806;8.774;2023-12-20T09:45:59;5.00;;;2.60;;
81996;SDS011;71500;50.806;8.774;2023-12-20T09:48:34;4.60;;;2.30;;
81996;SDS011;71500;50.806;8.774;2023-12-20T09:51:08;4.30;;;2.70;;
81996;SDS011;71500;50.806;8.774;2023-12-20T09:53:39;5.60;;;2.60;;
81996;SDS011;71500;50.806;8.774;2023-12-20T09:56:11;6.00;;;2.80;;
81996;SDS011;71500;50.806;8.774;2023-12-20T09:58:44;5.60;;;2.20;;
81996;SDS011;71500;50.806;8.774;2023-12-20T10:01:16;5.50;;;3.40;;
81996;SDS011;71500;50.806;8.774;2023-12-20T10:03:48;5.30;;;2.30;;
81996;SDS011;71500;50.806;8.774;2023-12-20T10:06:24;4.90;;;2.50;;
81996;SDS011;71500;50.806;8.774;2023-12-20T10:08:55;4.60;;;2.30;;
81996;SDS011;71500;50.806;8.774;2023-12-20T10:11:27;3.60;;;2.60;;
81996;SDS011;71500;50.806;8.774;2023-12-20T10:14:00;6.60;;;2.90;;
81996;SDS011;71500;50.806;8.774;2023-12-20T10:16:31;5.00;;;2.60;;
81996;SDS011;71500;50.806;8.774;2023-12-20T10:19:03;5.10;;;3.10;;
81996;SDS011;71500;50.806;8.774;2023-12-20T10:21:35;7.10;;;3.00;;
81996;SDS011;71500;50.806;8.774;2023-12-20T10:24:06;3.60;;;2.50;;
81996;SDS011;71500;50.806;8.774;2023-12-20T10:26:38;7.60;;;2.80;;
81996;SDS011;71500;50.806;8.774;2023-12-20T10:29:10;4.50;;;2.60;;
81996;SDS011;71500;50.806;8.774;2023-12-20T10:31:41;5.40;;;2.70;;
81996;SDS011;71500;50.806;8.774;2023-12-20T10:34:14;4.00;;;2.40;;
81996;SDS011;71500;50.806;8.774;2023-12-20T10:36:45;8.30;;;2.60;;
81996;SDS011;71500;50.806;8.774;2023-12-20T10:39:17;5.70;;;2.70;;
81996;SDS011;71500;50.806;8.774;2023-12-20T10:41:49;5.20;;;2.40;;
81996;SDS011;71500;50.806;8.774;2023-12-20T10:44:21;7.10;;;3.10;;
81996;SDS011;71500;50.806;8.774;2023-12-20T10:46:52;5.50;;;2.90;;
81996;SDS011;71500;50.806;8.774;2023-12-20T10:49:27;4.30;;;2.10;;
81996;SDS011;71500;50.806;8.774;2023-12-20T10:51:59;4.90;;;2.40;;
81996;SDS011;71500;50.806;8.774;2023-12-20T10:54:33;4.70;;;2.20;;
81996;SDS011;71500;50.806;8.774;2023-12-20T10:57:05;3.90;;;2.00;;
81996;SDS011;71500;50.806;8.774;2023-12-20T10:59:37;6.70;;;2.50;;
81996;SDS011;71500;50.806;8.774;2023-12-20T11:02:09;7.00;;;2.00;;
81996;SDS011;71500;50.806;8.774;2023-12-20T11:04:44;3.50;;;1.90;;
81996;SDS011;71500;50.806;8.774;2023-12-20T11:07:23;5.30;;;2.40;;
81996;SDS011;71500;50.806;8.774;2023-12-20T11:10:03;5.20;;;2.60;;
81996;SDS011;71500;50.806;8.774;2023-12-20T11:12:41;5.20;;;2.50;;
81996;SDS011;71500;50.806;8.774;2023-12-20T11:15:18;6.10;;;2.20;;
81996;SDS011;71500;50.806;8.774;2023-12-20T11:17:55;3.20;;;1.70;;
81996;SDS011;71500;50.806;8.774;2023-12-20T11:20:36;4.40;;;2.20;;
81996;SDS011;71500;50.806;8.774;2023-12-20T11:23:08;3.00;;;1.60;;
81996;SDS011;71500;50.806;8.774;2023-12-20T11:25:53;5.10;;;2.40;;
81996;SDS011;71500;50.806;8.774;2023-12-20T11:28:27;5.60;;;2.40;;
81996;SDS011;71500;50.806;8.774;2023-12-20T11:31:00;5.80;;;2.20;;
81996;SDS011;71500;50.806;8.774;2023-12-20T11:33:35;7.40;;;2.70;;
81996;SDS011;71500;50.806;8.774;2023-12-20T11:36:13;5.20;;;2.20;;
81996;SDS011;71500;50.806;8.774;2023-12-20T11:38:50;6.30;;;2.50;;
81996;SDS011;71500;50.806;8.774;2023-12-20T11:41:26;5.90;;;2.70;;
81996;SDS011;71500;50.806;8.774;2023-12-20T11:43:57;6.60;;;2.30;;
81996;SDS011;71500;50.806;8.774;2023-12-20T11:46:30;5.70;;;3.00;;
81996;SDS011;71500;50.806;8.774;2023-12-20T11:49:02;5.40;;;2.20;;
81996;SDS011;71500;50.806;8.774;2023-12-20T11:51:34;4.40;;;2.40;;
81996;SDS011;71500;50.806;8.774;2023-12-20T11:54:10;3.70;;;2.10;;
81996;SDS011;71500;50.806;8.774;2023-12-20T11:56:41;4.20;;;2.10;;
81996;SDS011;71500;50.806;8.774;2023-12-20T11:59:12;5.90;;;2.20;;
81996;SDS011;71500;50.806;8.774;2023-12-20T12:01:51;4.10;;;2.00;;
81996;SDS011;71500;50.806;8.774;2023-12-20T12:04:25;6.30;;;2.20;;
81996;SDS011;71500;50.806;8.774;2023-12-20T12:06:57;4.50;;;2.30;;
81996;SDS011;71500;50.806;8.774;2023-12-20T12:09:28;5.00;;;2.00;;
81996;SDS011;71500;50.806;8.774;2023-12-20T12:12:00;4.30;;;1.90;;
81996;SDS011;71500;50.806;8.774;2023-12-20T12:14:32;4.30;;;1.90;;
81996;SDS011;71500;50.806;8.774;2023-12-20T12:17:05;7.00;;;2.80;;
81996;SDS011;71500;50.806;8.774;2023-12-20T12:19:41;4.70;;;2.60;;
81996;SDS011;71500;50.806;8.774;2023-12-20T12:22:14;5.70;;;2.10;;
81996;SDS011;71500;50.806;8.774;2023-12-20T12:24:48;4.70;;;2.70;;
81996;SDS011;71500;50.806;8.774;2023-12-20T12:27:19;5.40;;;2.10;;
81996;SDS011;71500;50.806;8.774;2023-12-20T12:30:02;5.40;;;2.10;;
81996;SDS011;71500;50.806;8.774;2023-12-20T12:32:36;5.30;;;2.20;;
81996;SDS011;71500;50.806;8.774;2023-12-20T12:35:09;6.80;;;2.80;;
81996;SDS011;71500;50.806;8.774;2023-12-20T12:37:40;3.60;;;2.40;;
81996;SDS011;71500;50.806;8.774;2023-12-20T12:40:13;6.50;;;2.00;;
81996;SDS011;71500;50.806;8.774;2023-12-20T12:42:46;5.00;;;1.70;;
81996;SDS011;71500;50.806;8.774;2023-12-20T12:45:17;4.00;;;2.00;;
81996;SDS011;71500;50.806;8.774;2023-12-20T12:47:49;5.00;;;2.40;;
81996;SDS011;71500;50.806;8.774;2023-12-20T12:52:52;4.10;;;2.00;;
81996;SDS011;71500;50.806;8.774;2023-12-20T12:55:23;6.00;;;2.00;;
81996;SDS011;71500;50.806;8.774;2023-12-20T12:57:55;2.90;;;2.00;;
81996;SDS011;71500;50.806;8.774;2023-12-20T13:00:27;3.70;;;1.70;;
81996;SDS011;71500;50.806;8.774;2023-12-20T13:02:58;4.40;;;1.90;;
81996;SDS011;71500;50.806;8.774;2023-12-20T13:05:30;5.40;;;2.10;;
81996;SDS011;71500;50.806;8.774;2023-12-20T13:08:07;4.80;;;1.80;;
81996;SDS011;71500;50.806;8.774;2023-12-20T13:10:41;4.20;;;1.80;;
81996;SDS011;71500;50.806;8.774;2023-12-20T13:13:12;4.00;;;1.80;;
81996;SDS011;71500;50.806;8.774;2023-12-20T13:15:43;3.60;;;2.10;;
81996;SDS011;71500;50.806;8.774;2023-12-20T13:18:19;3.70;;;1.90;;
81996;SDS011;71500;50.806;8.774;2023-12-20T13:20:51;4.50;;;2.10;;
81996;SDS011;71500;50.806;8.774;2023-12-20T13:23:22;5.20;;;2.00;;
81996;SDS011;71500;50.806;8.774;2023-12-20T13:25:54;6.20;;;1.80;;
81996;SDS011;71500;50.806;8.774;2023-12-20T13:28:25;3.70;;;1.80;;
81996;SDS011;71500;50.806;8.774;2023-12-20T13:30:56;4.70;;;2.30;;
81996;SDS011;71500;50.806;8.774;2023-12-20T13:33:28;3.50;;;1.90;;
81996;SDS011;71500;50.806;8.774;2023-12-20T13:36:00;3.50;;;2.30;;
81996;SDS011;71500;50.806;8.774;2023-12-20T13:38:35;3.60;;;2.20;;
81996;SDS011;71500;50.806;8.774;2023-12-20T13:41:07;5.50;;;2.30;;
81996;SDS011;71500;50.806;8.774;2023-12-20T13:43:38;3.70;;;2.00;;
81996;SDS011;71500;50.806;8.774;2023-12-20T13:46:09;4.90;;;2.10;;
81996;SDS011;71500;50.806;8.774;2023-12-20T13:48:42;3.90;;;2.10;;
81996;SDS011;71500;50.806;8.774;2023-12-20T13:51:14;5.30;;;2.10;;
81996;SDS011;71500;50.806;8.774;2023-12-20T13:53:45;5.40;;;2.10;;
81996;SDS011;71500;50.806;8.774;2023-12-20T13:56:20;4.70;;;2.10;;
81996;SDS011;71500;50.806;8.774;2023-12-20T13:58:52;5.00;;;2.10;;
81996;SDS011;71500;50.806;8.774;2023-12-20T14:01:24;4.00;;;1.70;;
81996;SDS011;71500;50.806;8.774;2023-12-20T14:03:56;6.00;;;2.00;;
81996;SDS011;71500;50.806;8.774;2023-12-20T14:06:29;6.80;;;2.30;;
81996;SDS011;71500;50.806;8.774;2023-12-20T14:09:00;4.50;;;2.30;;
81996;SDS011;71500;50.806;8.774;2023-12-20T14:11:32;3.20;;;2.30;;
81996;SDS011;71500;50.806;8.774;2023-12-20T14:14:08;4.80;;;2.00;;
81996;SDS011;71500;50.806;8.774;2023-12-20T14:16:40;4.90;;;2.20;;
81996;SDS011;71500;50.806;8.774;2023-12-20T14:19:13;3.70;;;2.30;;
81996;SDS011;71500;50.806;8.774;2023-12-20T14:21:45;3.40;;;2.20;;
81996;SDS011;71500;50.806;8.774;2023-12-20T14:24:17;4.00;;;2.00;;
81996;SDS011;71500;50.806;8.774;2023-12-20T14:26:49;3.30;;;2.00;;
81996;SDS011;71500;50.806;8.774;2023-12-20T14:29:20;4.40;;;1.80;;
81996;SDS011;71500;50.806;8.774;2023-12-20T14:31:54;5.70;;;3.30;;
81996;SDS011;71500;50.806;8.774;2023-12-20T14:34:26;4.90;;;2.60;;
81996;SDS011;71500;50.806;8.774;2023-12-20T14:36:57;3.10;;;1.90;;
81996;SDS011;71500;50.806;8.774;2023-12-20T14:39:29;3.70;;;2.00;;
81996;SDS011;71500;50.806;8.774;2023-12-20T14:42:00;5.50;;;2.00;;
81996;SDS011;71500;50.806;8.774;2023-12-20T14:44:32;4.30;;;2.20;;
81996;SDS011;71500;50.806;8.774;2023-12-20T14:47:04;3.80;;;2.40;;
81996;SDS011;71500;50.806;8.774;2023-12-20T14:49:36;4.10;;;2.30;;
81996;SDS011;71500;50.806;8.774;2023-12-20T14:52:08;5.20;;;2.20;;
81996;SDS011;71500;50.806;8.774;2023-12-20T14:54:40;6.60;;;2.20;;
81996;SDS011;71500;50.806;8.774;2023-12-20T14:57:12;4.90;;;2.10;;
81996;SDS011;71500;50.806;8.774;2023-12-20T14:59:44;4.40;;;2.30;;
81996;SDS011;71500;50.806;8.774;2023-12-20T15:02:15;4.20;;;2.20;;
81996;SDS011;71500;50.806;8.774;2023-12-20T15:04:46;6.30;;;2.50;;
81996;SDS011;71500;50.806;8.774;2023-12-20T15:07:19;5.20;;;2.70;;
81996;SDS011;71500;50.806;8.774;2023-12-20T15:09:51;3.90;;;2.30;;
81996;SDS011;71500;50.806;8.774;2023-12-20T15:12:23;5.70;;;2.30;;
81996;SDS011;71500;50.806;8.774;2023-12-20T15:14:54;5.60;;;2.40;;
81996;SDS011;71500;50.806;8.774;2023-12-20T15:17:26;6.80;;;3.50;;
81996;SDS011;71500;50.806;8.774;2023-12-20T15:19:58;4.90;;;2.90;;
81996;SDS011;71500;50.806;8.774;2023-12-20T15:22:30;5.30;;;3.00;;
81996;SDS011;71500;50.806;8.774;2023-12-20T15:25:03;4.10;;;2.40;;